sensor_id;sensor_type;location;lat;lon;timestamp;pressure;altitude;pressure_sealevel;temperature;humidity
74079;BME280;62437;51.544;-3.276;2022-07-23T00:02:22;101302.81;;;18.23;41.27
74079;BME280;62437;51.544;-3.276;2022-07-23T00:04:47;101303.55;;;18.17;41.21
74079;BME280;62437;51.544;-3.276;2022-07-23T00:07:13;101306.97;;;18.23;40.85
74079;BME280;62437;51.544;-3.276;2022-07-23T00:09:38;101309.73;;;17.96;41.22
74079;BME280;62437;51.544;-3.276;2022-07-23T00:12:04;101307.48;;;18.08;41.05
74079;BME280;62437;51.544;-3.276;2022-07-23T00:14:28;101304.22;;;18.04;41.93
74079;BME280;62437;51.544;-3.276;2022-07-23T00:16:54;101306.08;;;17.38;42.67
74079;BME280;62437;51.544;-3.276;2022-07-23T00:19:20;101310.22;;;17.80;42.04
74079;BME280;62437;51.544;-3.276;2022-07-23T00:21:46;101313.22;;;17.82;41.33
74079;BME280;62437;51.544;-3.276;2022-07-23T00:24:11;101312.26;;;17.45;41.94
74079;BME280;62437;51.544;-3.276;2022-07-23T00:26:37;101312.40;;;17.56;41.20
74079;BME280;62437;51.544;-3.276;2022-07-23T00:29:03;101312.10;;;17.69;41.45
74079;BME280;62437;51.544;-3.276;2022-07-23T00:31:28;101306.57;;;17.60;41.45
74079;BME280;62437;51.544;-3.276;2022-07-23T00:33:54;101297.09;;;17.92;41.00
74079;BME280;62437;51.544;-3.276;2022-07-23T00:36:19;101297.63;;;17.82;42.02
74079;BME280;62437;51.544;-3.276;2022-07-23T00:38:45;101297.11;;;17.75;40.86
74079;BME280;62437;51.544;-3.276;2022-07-23T00:41:11;101295.31;;;17.15;41.54
74079;BME280;62437;51.544;-3.276;2022-07-23T00:43:36;101290.04;;;17.43;41.49
74079;BME280;62437;51.544;-3.276;2022-07-23T00:46:02;101287.20;;;17.15;41.95
74079;BME280;62437;51.544;-3.276;2022-07-23T00:48:28;101281.62;;;17.51;41.28
74079;BME280;62437;51.544;-3.276;2022-07-23T00:50:54;101286.56;;;17.27;41.30
74079;BME280;62437;51.544;-3.276;2022-07-23T00:53:20;101289.58;;;17.10;41.38
74079;BME280;62437;51.544;-3.276;2022-07-23T00:55:45;101295.28;;;17.01;41.54
74079;BME280;62437;51.544;-3.276;2022-07-23T00:58:11;101291.56;;;17.18;41.55
74079;BME280;62437;51.544;-3.276;2022-07-23T01:00:36;101287.71;;;17.25;41.15
74079;BME280;62437;51.544;-3.276;2022-07-23T01:03:02;101283.42;;;17.04;41.27
74079;BME280;62437;51.544;-3.276;2022-07-23T01:05:28;101281.75;;;17.11;41.51
74079;BME280;62437;51.544;-3.276;2022-07-23T01:07:53;101285.99;;;17.49;41.52
74079;BME280;62437;51.544;-3.276;2022-07-23T01:10:19;101284.23;;;17.28;41.23
74079;BME280;62437;51.544;-3.276;2022-07-23T01:12:45;101283.13;;;17.12;41.79
74079;BME280;62437;51.544;-3.276;2022-07-23T01:15:11;101284.70;;;17.04;41.26
74079;BME280;62437;51.544;-3.276;2022-07-23T01:17:36;101284.04;;;17.18;41.50
74079;BME280;62437;51.544;-3.276;2022-07-23T01:20:02;101284.51;;;17.10;41.56
74079;BME280;62437;51.544;-3.276;2022-07-23T01:22:29;101285.29;;;17.27;42.13
74079;BME280;62437;51.544;-3.276;2022-07-23T01:24:53;101282.60;;;16.79;41.42
74079;BME280;62437;51.544;-3.276;2022-07-23T01:27:19;101281.17;;;16.73;41.49
74079;BME280;62437;51.544;-3.276;2022-07-23T01:29:44;101285.05;;;16.77;41.71
74079;BME280;62437;51.544;-3.276;2022-07-23T01:32:10;101286.78;;;16.79;41.27
74079;BME280;62437;51.544;-3.276;2022-07-23T01:34:36;101284.94;;;17.27;40.95
74079;BME280;62437;51.544;-3.276;2022-07-23T01:37:01;101289.36;;;16.90;40.84
74079;BME280;62437;51.544;-3.276;2022-07-23T01:39:27;101286.99;;;16.77;41.66
74079;BME280;62437;51.544;-3.276;2022-07-23T01:41:53;101282.29;;;16.39;42.37
74079;BME280;62437;51.544;-3.276;2022-07-23T01:44:19;101282.13;;;16.31;41.85
74079;BME280;62437;51.544;-3.276;2022-07-23T01:46:44;101284.20;;;16.83;41.79
74079;BME280;62437;51.544;-3.276;2022-07-23T01:49:10;101283.61;;;16.52;41.32
74079;BME280;62437;51.544;-3.276;2022-07-23T01:51:35;101281.75;;;16.17;42.40
74079;BME280;62437;51.544;-3.276;2022-07-23T01:54:01;101283.85;;;16.05;42.31
74079;BME280;62437;51.544;-3.276;2022-07-23T01:56:27;101281.32;;;16.79;41.94
74079;BME280;62437;51.544;-3.276;2022-07-23T01:58:53;101284.62;;;16.53;42.00
74079;BME280;62437;51.544;-3.276;2022-07-23T02:01:18;101287.83;;;16.06;43.33
74079;BME280;62437;51.544;-3.276;2022-07-23T02:03:44;101286.14;;;16.54;41.91
74079;BME280;62437;51.544;-3.276;2022-07-23T02:06:10;101281.71;;;16.12;43.50
74079;BME280;62437;51.544;-3.276;2022-07-23T02:08:35;101282.22;;;16.19;42.28
74079;BME280;62437;51.544;-3.276;2022-07-23T02:11:01;101281.42;;;16.09;42.14
74079;BME280;62437;51.544;-3.276;2022-07-23T02:13:27;101275.90;;;16.34;42.24
74079;BME280;62437;51.544;-3.276;2022-07-23T02:15:53;101272.32;;;16.50;41.62
74079;BME280;62437;51.544;-3.276;2022-07-23T02:18:18;101278.63;;;16.16;41.10
74079;BME280;62437;51.544;-3.276;2022-07-23T02:20:44;101281.13;;;16.50;41.47
74079;BME280;62437;51.544;-3.276;2022-07-23T02:23:10;101289.79;;;16.52;41.28
74079;BME280;62437;51.544;-3.276;2022-07-23T02:25:36;101288.36;;;16.72;41.28
74079;BME280;62437;51.544;-3.276;2022-07-23T02:28:02;101283.71;;;16.50;41.20
74079;BME280;62437;51.544;-3.276;2022-07-23T02:30:27;101278.00;;;16.49;41.55
74079;BME280;62437;51.544;-3.276;2022-07-23T02:32:53;101273.28;;;16.49;41.36
74079;BME280;62437;51.544;-3.276;2022-07-23T02:35:19;101278.70;;;16.44;41.45
74079;BME280;62437;51.544;-3.276;2022-07-23T02:37:44;101278.97;;;16.35;41.64
74079;BME280;62437;51.544;-3.276;2022-07-23T02:40:10;101279.39;;;16.63;41.50
74079;BME280;62437;51.544;-3.276;2022-07-23T02:42:36;101280.94;;;16.38;41.50
74079;BME280;62437;51.544;-3.276;2022-07-23T02:45:02;101279.35;;;16.40;41.06
74079;BME280;62437;51.544;-3.276;2022-07-23T02:47:27;101274.76;;;16.49;41.48
74079;BME280;62437;51.544;-3.276;2022-07-23T02:49:53;101275.51;;;15.90;41.44
74079;BME280;62437;51.544;-3.276;2022-07-23T02:52:19;101273.93;;;16.38;41.42
74079;BME280;62437;51.544;-3.276;2022-07-23T02:54:44;101271.43;;;16.58;41.56
74079;BME280;62437;51.544;-3.276;2022-07-23T02:57:10;101273.59;;;16.70;41.18
74079;BME280;62437;51.544;-3.276;2022-07-23T02:59:35;101271.39;;;16.69;41.19
74079;BME280;62437;51.544;-3.276;2022-07-23T03:02:01;101271.53;;;16.79;41.18
74079;BME280;62437;51.544;-3.276;2022-07-23T03:04:27;101270.73;;;16.87;40.65
74079;BME280;62437;51.544;-3.276;2022-07-23T03:06:53;101270.64;;;16.42;41.37
74079;BME280;62437;51.544;-3.276;2022-07-23T03:09:18;101273.61;;;16.09;41.36
74079;BME280;62437;51.544;-3.276;2022-07-23T03:11:44;101276.08;;;16.62;40.46
74079;BME280;62437;51.544;-3.276;2022-07-23T03:14:10;101275.45;;;16.06;42.04
74079;BME280;62437;51.544;-3.276;2022-07-23T03:16:36;101276.75;;;16.19;41.03
74079;BME280;62437;51.544;-3.276;2022-07-23T03:19:01;101276.59;;;16.82;41.05
74079;BME280;62437;51.544;-3.276;2022-07-23T03:21:28;101273.11;;;16.28;40.88
74079;BME280;62437;51.544;-3.276;2022-07-23T03:23:53;101281.74;;;15.95;41.43
74079;BME280;62437;51.544;-3.276;2022-07-23T03:26:19;101282.58;;;15.94;41.27
74079;BME280;62437;51.544;-3.276;2022-07-23T03:28:44;101280.37;;;16.12;41.35
74079;BME280;62437;51.544;-3.276;2022-07-23T03:31:10;101282.35;;;16.33;42.34
74079;BME280;62437;51.544;-3.276;2022-07-23T03:33:36;101287.76;;;16.21;41.07
74079;BME280;62437;51.544;-3.276;2022-07-23T03:36:02;101290.87;;;15.51;42.08
74079;BME280;62437;51.544;-3.276;2022-07-23T03:38:27;101289.00;;;15.87;41.86
74079;BME280;62437;51.544;-3.276;2022-07-23T03:40:53;101285.61;;;15.67;41.75
74079;BME280;62437;51.544;-3.276;2022-07-23T03:43:19;101280.75;;;16.11;41.59
74079;BME280;62437;51.544;-3.276;2022-07-23T03:45:45;101273.02;;;15.87;41.82
74079;BME280;62437;51.544;-3.276;2022-07-23T03:48:10;101270.76;;;16.09;41.53
74079;BME280;62437;51.544;-3.276;2022-07-23T03:50:36;101271.07;;;16.10;41.52
74079;BME280;62437;51.544;-3.276;2022-07-23T03:53:02;101265.63;;;16.39;41.05
74079;BME280;62437;51.544;-3.276;2022-07-23T03:55:28;101261.59;;;16.53;40.78
74079;BME280;62437;51.544;-3.276;2022-07-23T03:57:53;101260.73;;;16.16;41.46
74079;BME280;62437;51.544;-3.276;2022-07-23T04:00:19;101258.21;;;16.24;41.35
74079;BME280;62437;51.544;-3.276;2022-07-23T04:02:44;101261.06;;;16.14;41.63
74079;BME280;62437;51.544;-3.276;2022-07-23T04:05:10;101261.57;;;16.37;40.98
74079;BME280;62437;51.544;-3.276;2022-07-23T04:07:36;101257.18;;;16.49;40.99
74079;BME280;62437;51.544;-3.276;2022-07-23T04:10:02;101256.05;;;16.13;41.57
74079;BME280;62437;51.544;-3.276;2022-07-23T04:12:27;101257.61;;;15.98;41.44
74079;BME280;62437;51.544;-3.276;2022-07-23T04:14:53;101258.49;;;16.21;41.09
74079;BME280;62437;51.544;-3.276;2022-07-23T04:17:18;101260.44;;;15.74;41.83
74079;BME280;62437;51.544;-3.276;2022-07-23T04:19:44;101257.34;;;16.24;41.78
74079;BME280;62437;51.544;-3.276;2022-07-23T04:22:11;101255.61;;;16.41;41.15
74079;BME280;62437;51.544;-3.276;2022-07-23T04:24:36;101252.65;;;16.51;41.15
74079;BME280;62437;51.544;-3.276;2022-07-23T04:27:02;101255.57;;;16.62;41.31
74079;BME280;62437;51.544;-3.276;2022-07-23T04:29:27;101261.35;;;16.46;40.53
74079;BME280;62437;51.544;-3.276;2022-07-23T04:31:53;101263.41;;;16.39;41.27
74079;BME280;62437;51.544;-3.276;2022-07-23T04:34:19;101264.95;;;16.26;41.25
74079;BME280;62437;51.544;-3.276;2022-07-23T04:36:44;101266.90;;;16.51;40.57
74079;BME280;62437;51.544;-3.276;2022-07-23T04:39:10;101269.04;;;16.40;41.56
74079;BME280;62437;51.544;-3.276;2022-07-23T04:41:35;101269.86;;;16.28;41.09
74079;BME280;62437;51.544;-3.276;2022-07-23T04:44:01;101267.22;;;16.43;41.49
74079;BME280;62437;51.544;-3.276;2022-07-23T04:46:27;101267.24;;;16.29;41.51
74079;BME280;62437;51.544;-3.276;2022-07-23T04:48:53;101263.19;;;16.28;41.76
74079;BME280;62437;51.544;-3.276;2022-07-23T04:51:18;101259.37;;;16.37;41.10
74079;BME280;62437;51.544;-3.276;2022-07-23T04:53:44;101248.95;;;16.27;41.45
74079;BME280;62437;51.544;-3.276;2022-07-23T04:56:10;101241.43;;;16.29;41.74
74079;BME280;62437;51.544;-3.276;2022-07-23T04:58:36;101241.37;;;16.36;41.27
74079;BME280;62437;51.544;-3.276;2022-07-23T05:01:01;101242.89;;;16.28;41.23
74079;BME280;62437;51.544;-3.276;2022-07-23T05:03:27;101242.22;;;16.46;40.97
74079;BME280;62437;51.544;-3.276;2022-07-23T05:05:53;101235.94;;;16.54;40.87
74079;BME280;62437;51.544;-3.276;2022-07-23T05:08:18;101234.61;;;16.22;41.53
74079;BME280;62437;51.544;-3.276;2022-07-23T05:10:44;101231.92;;;16.40;41.57
74079;BME280;62437;51.544;-3.276;2022-07-23T05:13:09;101233.43;;;16.31;41.25
74079;BME280;62437;51.544;-3.276;2022-07-23T05:15:35;101232.52;;;16.49;40.87
74079;BME280;62437;51.544;-3.276;2022-07-23T05:18:01;101232.54;;;16.85;40.35
74079;BME280;62437;51.544;-3.276;2022-07-23T05:20:27;101235.17;;;16.89;40.54
74079;BME280;62437;51.544;-3.276;2022-07-23T05:22:52;101243.18;;;16.78;41.26
74079;BME280;62437;51.544;-3.276;2022-07-23T05:25:18;101244.84;;;16.63;41.13
74079;BME280;62437;51.544;-3.276;2022-07-23T05:27:44;101250.80;;;16.76;41.40
74079;BME280;62437;51.544;-3.276;2022-07-23T05:30:11;101258.40;;;16.53;41.40
74079;BME280;62437;51.544;-3.276;2022-07-23T05:32:35;101253.47;;;17.08;41.26
74079;BME280;62437;51.544;-3.276;2022-07-23T05:35:01;101255.92;;;17.04;41.40
74079;BME280;62437;51.544;-3.276;2022-07-23T05:37:27;101254.32;;;17.43;40.77
74079;BME280;62437;51.544;-3.276;2022-07-23T05:39:53;101254.75;;;17.23;40.71
74079;BME280;62437;51.544;-3.276;2022-07-23T05:42:18;101254.65;;;16.97;41.13
74079;BME280;62437;51.544;-3.276;2022-07-23T05:44:44;101255.56;;;17.89;40.08
74079;BME280;62437;51.544;-3.276;2022-07-23T05:47:10;101254.10;;;17.45;40.90
74079;BME280;62437;51.544;-3.276;2022-07-23T05:49:36;101250.65;;;17.33;39.89
74079;BME280;62437;51.544;-3.276;2022-07-23T05:52:05;101247.96;;;17.44;40.81
74079;BME280;62437;51.544;-3.276;2022-07-23T05:54:27;101242.81;;;17.54;40.92
74079;BME280;62437;51.544;-3.276;2022-07-23T05:56:52;101236.87;;;17.42;40.79
74079;BME280;62437;51.544;-3.276;2022-07-23T05:59:18;101229.15;;;17.56;40.80
74079;BME280;62437;51.544;-3.276;2022-07-23T06:01:44;101229.46;;;17.51;41.31
74079;BME280;62437;51.544;-3.276;2022-07-23T06:04:09;101226.20;;;17.54;40.97
74079;BME280;62437;51.544;-3.276;2022-07-23T06:06:35;101231.21;;;17.69;40.89
74079;BME280;62437;51.544;-3.276;2022-07-23T06:09:01;101235.76;;;17.95;40.52
74079;BME280;62437;51.544;-3.276;2022-07-23T06:11:26;101234.72;;;17.92;40.52
74079;BME280;62437;51.544;-3.276;2022-07-23T06:13:51;101234.74;;;18.07;40.14
74079;BME280;62437;51.544;-3.276;2022-07-23T06:16:17;101239.04;;;18.00;40.95
74079;BME280;62437;51.544;-3.276;2022-07-23T06:18:43;101236.44;;;17.96;40.68
74079;BME280;62437;51.544;-3.276;2022-07-23T06:21:08;101235.95;;;17.83;41.50
74079;BME280;62437;51.544;-3.276;2022-07-23T06:23:34;101234.28;;;18.01;41.10
74079;BME280;62437;51.544;-3.276;2022-07-23T06:25:59;101237.90;;;18.15;40.45
74079;BME280;62437;51.544;-3.276;2022-07-23T06:28:25;101235.91;;;18.20;41.18
74079;BME280;62437;51.544;-3.276;2022-07-23T06:30:51;101233.30;;;18.25;40.84
74079;BME280;62437;51.544;-3.276;2022-07-23T06:33:17;101236.86;;;18.14;41.11
74079;BME280;62437;51.544;-3.276;2022-07-23T06:35:42;101237.72;;;18.19;41.49
74079;BME280;62437;51.544;-3.276;2022-07-23T06:38:08;101238.17;;;18.44;41.11
74079;BME280;62437;51.544;-3.276;2022-07-23T06:40:34;101242.87;;;18.06;41.20
74079;BME280;62437;51.544;-3.276;2022-07-23T06:42:59;101242.51;;;17.74;42.33
74079;BME280;62437;51.544;-3.276;2022-07-23T06:45:25;101242.58;;;17.95;41.81
74079;BME280;62437;51.544;-3.276;2022-07-23T06:47:51;101245.85;;;18.11;41.44
74079;BME280;62437;51.544;-3.276;2022-07-23T06:50:17;101246.02;;;18.47;42.04
74079;BME280;62437;51.544;-3.276;2022-07-23T06:52:42;101245.53;;;18.14;42.41
74079;BME280;62437;51.544;-3.276;2022-07-23T06:55:08;101241.61;;;18.04;42.28
74079;BME280;62437;51.544;-3.276;2022-07-23T06:57:34;101239.55;;;18.37;42.79
74079;BME280;62437;51.544;-3.276;2022-07-23T06:59:59;101240.66;;;18.21;43.23
74079;BME280;62437;51.544;-3.276;2022-07-23T07:02:25;101239.76;;;18.34;43.30
74079;BME280;62437;51.544;-3.276;2022-07-23T07:04:51;101236.22;;;18.07;43.74
74079;BME280;62437;51.544;-3.276;2022-07-23T07:07:17;101237.86;;;18.49;43.17
74079;BME280;62437;51.544;-3.276;2022-07-23T07:09:43;101239.76;;;18.31;44.65
74079;BME280;62437;51.544;-3.276;2022-07-23T07:12:08;101244.27;;;18.44;43.37
74079;BME280;62437;51.544;-3.276;2022-07-23T07:14:33;101246.61;;;18.61;42.16
74079;BME280;62437;51.544;-3.276;2022-07-23T07:16:59;101248.75;;;18.70;42.35
74079;BME280;62437;51.544;-3.276;2022-07-23T07:19:24;101250.04;;;18.38;43.85
74079;BME280;62437;51.544;-3.276;2022-07-23T07:21:50;101250.55;;;17.90;43.34
74079;BME280;62437;51.544;-3.276;2022-07-23T07:24:16;101251.01;;;18.62;43.10
74079;BME280;62437;51.544;-3.276;2022-07-23T07:26:41;101246.50;;;18.63;44.72
74079;BME280;62437;51.544;-3.276;2022-07-23T07:29:07;101248.07;;;18.58;44.77
74079;BME280;62437;51.544;-3.276;2022-07-23T07:31:33;101245.81;;;18.26;45.05
74079;BME280;62437;51.544;-3.276;2022-07-23T07:33:59;101245.17;;;18.25;44.13
74079;BME280;62437;51.544;-3.276;2022-07-23T07:36:24;101247.47;;;18.51;45.79
74079;BME280;62437;51.544;-3.276;2022-07-23T07:38:49;101248.40;;;18.61;43.45
74079;BME280;62437;51.544;-3.276;2022-07-23T07:41:15;101250.19;;;18.71;44.15
74079;BME280;62437;51.544;-3.276;2022-07-23T07:43:41;101249.82;;;19.06;43.93
74079;BME280;62437;51.544;-3.276;2022-07-23T07:46:07;101245.33;;;19.06;42.96
74079;BME280;62437;51.544;-3.276;2022-07-23T07:48:32;101243.06;;;18.74;43.36
74079;BME280;62437;51.544;-3.276;2022-07-23T07:50:58;101245.92;;;18.90;42.98
74079;BME280;62437;51.544;-3.276;2022-07-23T07:53:24;101249.27;;;18.66;43.26
74079;BME280;62437;51.544;-3.276;2022-07-23T07:55:49;101249.43;;;18.55;42.77
74079;BME280;62437;51.544;-3.276;2022-07-23T07:58:15;101250.41;;;18.94;44.53
74079;BME280;62437;51.544;-3.276;2022-07-23T08:00:41;101254.10;;;19.05;43.17
74079;BME280;62437;51.544;-3.276;2022-07-23T08:03:06;101255.34;;;18.82;45.52
74079;BME280;62437;51.544;-3.276;2022-07-23T08:05:32;101252.35;;;19.20;44.38
74079;BME280;62437;51.544;-3.276;2022-07-23T08:07:59;101252.73;;;18.54;44.00
74079;BME280;62437;51.544;-3.276;2022-07-23T08:10:23;101249.57;;;18.96;44.91
74079;BME280;62437;51.544;-3.276;2022-07-23T08:12:51;101247.17;;;18.72;43.25
74079;BME280;62437;51.544;-3.276;2022-07-23T08:15:16;101250.08;;;18.87;43.73
74079;BME280;62437;51.544;-3.276;2022-07-23T08:17:41;101248.34;;;18.90;43.63
74079;BME280;62437;51.544;-3.276;2022-07-23T08:20:08;101248.52;;;19.15;44.55
74079;BME280;62437;51.544;-3.276;2022-07-23T08:22:43;101251.47;;;18.91;43.94
74079;BME280;62437;51.544;-3.276;2022-07-23T08:24:57;101250.74;;;18.30;43.90
74079;BME280;62437;51.544;-3.276;2022-07-23T08:27:23;101255.00;;;18.77;43.94
74079;BME280;62437;51.544;-3.276;2022-07-23T08:29:49;101253.92;;;18.75;43.38
74079;BME280;62437;51.544;-3.276;2022-07-23T08:32:15;101256.57;;;18.81;45.15
74079;BME280;62437;51.544;-3.276;2022-07-23T08:34:40;101254.36;;;19.39;45.11
74079;BME280;62437;51.544;-3.276;2022-07-23T08:37:06;101254.33;;;18.90;47.82
74079;BME280;62437;51.544;-3.276;2022-07-23T08:39:32;101255.28;;;18.95;44.12
74079;BME280;62437;51.544;-3.276;2022-07-23T08:41:57;101251.18;;;18.39;44.32
74079;BME280;62437;51.544;-3.276;2022-07-23T08:44:23;101250.06;;;18.45;45.06
74079;BME280;62437;51.544;-3.276;2022-07-23T08:46:49;101251.87;;;18.99;44.84
74079;BME280;62437;51.544;-3.276;2022-07-23T08:49:15;101250.80;;;19.13;44.28
74079;BME280;62437;51.544;-3.276;2022-07-23T08:51:40;101247.78;;;18.94;44.10
74079;BME280;62437;51.544;-3.276;2022-07-23T08:54:06;101248.30;;;18.53;45.42
74079;BME280;62437;51.544;-3.276;2022-07-23T08:56:32;101250.12;;;18.56;44.29
74079;BME280;62437;51.544;-3.276;2022-07-23T08:58:58;101246.88;;;19.12;43.66
74079;BME280;62437;51.544;-3.276;2022-07-23T09:01:23;101244.25;;;19.20;44.20
74079;BME280;62437;51.544;-3.276;2022-07-23T09:03:49;101246.30;;;18.82;43.92
74079;BME280;62437;51.544;-3.276;2022-07-23T09:06:15;101244.95;;;18.45;44.12
74079;BME280;62437;51.544;-3.276;2022-07-23T09:08:41;101239.88;;;18.39;45.89
74079;BME280;62437;51.544;-3.276;2022-07-23T09:11:07;101238.83;;;18.38;51.20
74079;BME280;62437;51.544;-3.276;2022-07-23T09:13:35;101235.99;;;18.93;45.53
74079;BME280;62437;51.544;-3.276;2022-07-23T09:15:59;101236.11;;;19.05;49.58
74079;BME280;62437;51.544;-3.276;2022-07-23T09:18:30;101237.09;;;19.21;44.54
74079;BME280;62437;51.544;-3.276;2022-07-23T09:20:49;101237.76;;;19.26;44.32
74079;BME280;62437;51.544;-3.276;2022-07-23T09:23:14;101235.20;;;19.22;44.50
74079;BME280;62437;51.544;-3.276;2022-07-23T09:25:41;101232.81;;;18.93;45.69
74079;BME280;62437;51.544;-3.276;2022-07-23T09:28:06;101236.56;;;19.31;45.81
74079;BME280;62437;51.544;-3.276;2022-07-23T09:30:32;101238.60;;;19.28;45.53
74079;BME280;62437;51.544;-3.276;2022-07-23T09:33:04;101236.02;;;19.46;44.20
74079;BME280;62437;51.544;-3.276;2022-07-23T09:40:14;101229.61;;;19.05;46.85
74079;BME280;62437;51.544;-3.276;2022-07-23T09:42:40;101228.26;;;19.22;49.21
74079;BME280;62437;51.544;-3.276;2022-07-23T09:45:11;101228.01;;;18.88;46.19
74079;BME280;62437;51.544;-3.276;2022-07-23T09:47:32;101225.85;;;18.98;45.45
74079;BME280;62437;51.544;-3.276;2022-07-23T09:50:00;101224.35;;;19.07;47.38
74079;BME280;62437;51.544;-3.276;2022-07-23T09:52:28;101227.28;;;19.47;45.93
74079;BME280;62437;51.544;-3.276;2022-07-23T09:54:57;101229.73;;;19.14;48.18
74079;BME280;62437;51.544;-3.276;2022-07-23T09:57:14;101232.27;;;19.18;47.88
74079;BME280;62437;51.544;-3.276;2022-07-23T09:59:40;101233.76;;;19.39;49.33
74079;BME280;62437;51.544;-3.276;2022-07-23T10:02:06;101237.50;;;19.73;46.20
74079;BME280;62437;51.544;-3.276;2022-07-23T10:04:32;101238.44;;;19.47;46.64
74079;BME280;62437;51.544;-3.276;2022-07-23T10:06:58;101240.18;;;19.81;45.76
74079;BME280;62437;51.544;-3.276;2022-07-23T10:09:25;101237.98;;;19.41;44.98
74079;BME280;62437;51.544;-3.276;2022-07-23T10:11:48;101232.13;;;19.66;45.25
74079;BME280;62437;51.544;-3.276;2022-07-23T10:14:14;101229.05;;;19.63;44.96
74079;BME280;62437;51.544;-3.276;2022-07-23T10:16:39;101231.14;;;19.00;46.66
74079;BME280;62437;51.544;-3.276;2022-07-23T10:19:05;101227.00;;;19.19;46.69
74079;BME280;62437;51.544;-3.276;2022-07-23T10:21:39;101223.40;;;19.69;46.89
74079;BME280;62437;51.544;-3.276;2022-07-23T10:24:12;101219.20;;;19.83;46.45
74079;BME280;62437;51.544;-3.276;2022-07-23T10:26:27;101222.27;;;19.49;45.66
74079;BME280;62437;51.544;-3.276;2022-07-23T10:29:01;101219.82;;;19.59;46.54
74079;BME280;62437;51.544;-3.276;2022-07-23T10:31:25;101220.46;;;19.49;45.10
74079;BME280;62437;51.544;-3.276;2022-07-23T10:33:45;101220.63;;;19.75;45.35
74079;BME280;62437;51.544;-3.276;2022-07-23T10:36:11;101224.10;;;19.33;46.51
74079;BME280;62437;51.544;-3.276;2022-07-23T10:38:36;101224.00;;;19.56;46.30
74079;BME280;62437;51.544;-3.276;2022-07-23T10:40:58;101226.63;;;19.68;46.94
74079;BME280;62437;51.544;-3.276;2022-07-23T10:43:22;101226.54;;;20.00;47.63
74079;BME280;62437;51.544;-3.276;2022-07-23T10:45:48;101222.02;;;19.99;45.69
74079;BME280;62437;51.544;-3.276;2022-07-23T10:48:15;101222.17;;;19.13;46.40
74079;BME280;62437;51.544;-3.276;2022-07-23T10:50:39;101218.39;;;19.91;47.08
74079;BME280;62437;51.544;-3.276;2022-07-23T10:53:12;101218.27;;;20.12;46.49
74079;BME280;62437;51.544;-3.276;2022-07-23T10:55:41;101222.78;;;20.22;45.20
74079;BME280;62437;51.544;-3.276;2022-07-23T10:57:56;101224.91;;;19.91;46.00
74079;BME280;62437;51.544;-3.276;2022-07-23T11:00:23;101220.01;;;20.03;45.67
74079;BME280;62437;51.544;-3.276;2022-07-23T11:02:52;101215.47;;;20.10;45.50
74079;BME280;62437;51.544;-3.276;2022-07-23T11:05:15;101217.52;;;20.29;45.63
74079;BME280;62437;51.544;-3.276;2022-07-23T11:10:05;101222.48;;;19.80;47.01
74079;BME280;62437;51.544;-3.276;2022-07-23T11:12:34;101215.87;;;20.33;47.12
74079;BME280;62437;51.544;-3.276;2022-07-23T11:15:00;101218.83;;;19.94;47.48
74079;BME280;62437;51.544;-3.276;2022-07-23T11:17:21;101215.72;;;19.87;46.87
74079;BME280;62437;51.544;-3.276;2022-07-23T11:27:04;101195.91;;;20.77;46.81
74079;BME280;62437;51.544;-3.276;2022-07-23T11:29:40;101193.91;;;20.93;45.96
74079;BME280;62437;51.544;-3.276;2022-07-23T11:31:57;101192.53;;;20.48;46.70
74079;BME280;62437;51.544;-3.276;2022-07-23T11:34:30;101186.86;;;20.99;46.15
74079;BME280;62437;51.544;-3.276;2022-07-23T11:36:50;101186.97;;;21.17;45.73
74079;BME280;62437;51.544;-3.276;2022-07-23T11:39:12;101183.18;;;20.39;46.88
74079;BME280;62437;51.544;-3.276;2022-07-23T11:41:43;101184.30;;;20.04;47.15
74079;BME280;62437;51.544;-3.276;2022-07-23T11:44:04;101186.04;;;20.12;48.14
74079;BME280;62437;51.544;-3.276;2022-07-23T11:46:29;101183.97;;;20.37;48.35
74079;BME280;62437;51.544;-3.276;2022-07-23T11:49:01;101186.08;;;20.84;45.92
74079;BME280;62437;51.544;-3.276;2022-07-23T11:51:25;101191.00;;;21.28;46.18
74079;BME280;62437;51.544;-3.276;2022-07-23T11:53:46;101194.77;;;20.50;47.17
74079;BME280;62437;51.544;-3.276;2022-07-23T11:56:12;101193.98;;;21.18;47.46
74079;BME280;62437;51.544;-3.276;2022-07-23T11:58:38;101200.70;;;20.80;47.64
74079;BME280;62437;51.544;-3.276;2022-07-23T12:01:04;101196.52;;;21.18;46.94
74079;BME280;62437;51.544;-3.276;2022-07-23T12:03:29;101202.73;;;20.65;46.72
74079;BME280;62437;51.544;-3.276;2022-07-23T12:05:56;101198.31;;;20.63;47.71
74079;BME280;62437;51.544;-3.276;2022-07-23T12:08:20;101198.30;;;21.24;46.99
74079;BME280;62437;51.544;-3.276;2022-07-23T12:10:45;101198.19;;;21.74;45.58
74079;BME280;62437;51.544;-3.276;2022-07-23T12:13:12;101192.76;;;21.02;47.12
74079;BME280;62437;51.544;-3.276;2022-07-23T12:15:39;101194.60;;;20.74;47.15
74079;BME280;62437;51.544;-3.276;2022-07-23T12:18:03;101188.35;;;21.18;46.53
74079;BME280;62437;51.544;-3.276;2022-07-23T12:20:30;101184.51;;;20.61;46.75
74079;BME280;62437;51.544;-3.276;2022-07-23T12:22:58;101184.73;;;20.64;47.60
74079;BME280;62437;51.544;-3.276;2022-07-23T12:25:21;101183.74;;;20.89;46.94
74079;BME280;62437;51.544;-3.276;2022-07-23T12:27:45;101188.84;;;20.58;47.74
74079;BME280;62437;51.544;-3.276;2022-07-23T12:30:17;101192.89;;;20.29;47.69
74079;BME280;62437;51.544;-3.276;2022-07-23T12:32:42;101201.87;;;19.78;48.60
74079;BME280;62437;51.544;-3.276;2022-07-23T12:35:05;101207.39;;;20.84;47.79
74079;BME280;62437;51.544;-3.276;2022-07-23T12:37:29;101205.78;;;20.80;47.42
74079;BME280;62437;51.544;-3.276;2022-07-23T12:39:53;101205.60;;;21.41;46.79
74079;BME280;62437;51.544;-3.276;2022-07-23T12:42:19;101199.98;;;21.37;46.11
74079;BME280;62437;51.544;-3.276;2022-07-23T12:47:10;101188.22;;;21.48;45.47
74079;BME280;62437;51.544;-3.276;2022-07-23T12:49:36;101184.45;;;21.32;45.12